createdAt,value
2017-06-19T00:01:10.182Z,22.74
2017-06-19T00:03:37.691Z,22.61
2017-06-19T00:06:05.207Z,22.53
2017-06-19T00:08:32.755Z,22.59
2017-06-19T00:11:00.263Z,22.30
2017-06-19T00:13:27.815Z,22.21
2017-06-19T00:15:55.323Z,22.09
2017-06-19T00:18:22.891Z,22.06
2017-06-19T00:20:56.008Z,21.86
2017-06-19T00:23:29.176Z,21.82
2017-06-19T00:25:56.691Z,21.76
2017-06-19T00:28:24.247Z,21.88
2017-06-19T00:30:51.860Z,21.87
2017-06-19T00:33:19.378Z,22.01
2017-06-19T00:35:46.933Z,22.11
2017-06-19T00:38:14.479Z,22.40
2017-06-19T00:40:42.019Z,22.05
2017-06-19T00:43:09.570Z,21.93
2017-06-19T00:45:37.167Z,21.96
2017-06-19T00:48:04.676Z,22.08
2017-06-19T00:50:32.191Z,21.95
2017-06-19T00:52:59.740Z,22.08
2017-06-19T00:55:27.255Z,22.37
2017-06-19T00:57:54.819Z,22.44
2017-06-19T01:00:22.328Z,22.44
2017-06-19T01:02:49.843Z,21.89
2017-06-19T01:05:17.394Z,21.90
2017-06-19T01:07:44.915Z,22.00
2017-06-19T01:10:12.563Z,21.98
2017-06-19T01:12:40.106Z,21.80
2017-06-19T01:15:07.647Z,21.51
2017-06-19T01:17:35.247Z,21.43
2017-06-19T01:20:02.819Z,21.69
2017-06-19T01:22:30.342Z,21.40
2017-06-19T01:24:57.951Z,21.40
2017-06-19T01:27:25.459Z,21.02
2017-06-19T01:29:53.007Z,21.03
2017-06-19T01:32:20.522Z,20.92
2017-06-19T01:34:48.087Z,21.01
2017-06-19T01:37:15.619Z,20.83
2017-06-19T01:39:43.126Z,20.81
2017-06-19T01:42:10.673Z,20.77
2017-06-19T01:44:38.207Z,20.62
2017-06-19T01:47:05.728Z,20.54
2017-06-19T01:49:33.215Z,20.48
2017-06-19T01:52:00.764Z,20.49
2017-06-19T01:54:28.274Z,20.48
2017-06-19T01:56:55.839Z,20.51
2017-06-19T01:59:23.342Z,20.69
2017-06-19T02:01:50.940Z,20.85
2017-06-19T02:04:18.486Z,20.71
2017-06-19T02:06:46.019Z,20.65
2017-06-19T02:09:13.647Z,20.42
2017-06-19T02:11:41.211Z,20.25
2017-06-19T02:14:08.879Z,20.18
2017-06-19T02:16:36.387Z,20.04
2017-06-19T02:19:03.959Z,20.11
2017-06-19T02:21:31.475Z,19.95
2017-06-19T02:23:59.003Z,19.98
2017-06-19T02:26:26.538Z,19.77
2017-06-19T02:28:54.059Z,19.62
2017-06-19T02:31:21.616Z,19.81
2017-06-19T02:33:49.779Z,19.81
2017-06-19T02:36:17.327Z,19.69
2017-06-19T02:38:44.839Z,19.77
2017-06-19T02:41:12.387Z,19.73
2017-06-19T02:43:39.927Z,19.68
2017-06-19T02:46:07.434Z,19.64
2017-06-19T02:48:34.995Z,19.37
2017-06-19T02:51:02.535Z,19.33
2017-06-19T02:53:30.187Z,19.17
2017-06-19T02:55:57.695Z,19.26
2017-06-19T02:58:25.260Z,19.19
2017-06-19T03:00:52.928Z,19.22
2017-06-19T03:03:20.438Z,19.30
2017-06-19T03:05:47.983Z,19.27
2017-06-19T03:08:15.513Z,19.11
2017-06-19T03:10:43.035Z,19.19
2017-06-19T03:13:10.551Z,19.22
2017-06-19T03:15:38.104Z,19.19
2017-06-19T03:18:05.739Z,19.38
2017-06-19T03:20:33.256Z,19.46
2017-06-19T03:23:00.804Z,19.29
2017-06-19T03:25:28.303Z,19.19
2017-06-19T03:27:55.856Z,19.15
2017-06-19T03:30:23.362Z,19.19
2017-06-19T03:32:50.880Z,19.18
2017-06-19T03:35:18.422Z,19.20
2017-06-19T03:37:45.931Z,19.33
2017-06-19T03:40:13.476Z,19.48
2017-06-19T03:42:40.998Z,19.32
2017-06-19T03:45:08.587Z,19.52
2017-06-19T03:47:36.138Z,19.37
2017-06-19T03:50:03.739Z,19.25
2017-06-19T03:52:31.378Z,19.10
2017-06-19T03:54:58.888Z,19.16
2017-06-19T03:57:26.483Z,19.29
2017-06-19T03:59:54.001Z,19.44
2017-06-19T04:02:21.551Z,19.29
2017-06-19T04:04:49.067Z,19.32
2017-06-19T04:07:16.670Z,19.28
2017-06-19T04:09:44.219Z,19.20
2017-06-19T04:12:11.723Z,19.19
2017-06-19T04:14:39.264Z,19.07
2017-06-19T04:17:06.817Z,19.23
2017-06-19T04:19:34.374Z,19.32
2017-06-19T04:22:01.896Z,19.41
2017-06-19T04:24:29.407Z,19.31
2017-06-19T04:26:56.955Z,19.35
2017-06-19T04:29:24.476Z,19.38
2017-06-19T04:31:52.027Z,19.45
2017-06-19T04:34:19.548Z,19.54
2017-06-19T04:36:47.107Z,19.46
2017-06-19T04:39:14.630Z,19.67
2017-06-19T04:41:42.187Z,19.87
2017-06-19T04:44:09.715Z,20.10
2017-06-19T04:46:37.266Z,20.30
2017-06-19T04:49:04.783Z,20.40
2017-06-19T04:51:32.331Z,20.50
2017-06-19T04:53:59.843Z,20.58
2017-06-19T04:56:27.479Z,20.65
2017-06-19T04:58:55.094Z,20.72
2017-06-19T05:01:22.619Z,20.76
2017-06-19T05:03:50.306Z,20.78
2017-06-19T05:06:17.819Z,20.85
2017-06-19T05:08:45.396Z,20.92
2017-06-19T05:11:12.912Z,21.01
2017-06-19T05:13:40.424Z,21.06
2017-06-19T05:16:07.990Z,21.11
2017-06-19T05:18:35.490Z,21.13
2017-06-19T05:21:03.030Z,21.17
2017-06-19T05:23:30.578Z,21.17
2017-06-19T05:25:58.178Z,21.17
2017-06-19T05:28:25.689Z,21.25
2017-06-19T05:30:53.194Z,21.27
2017-06-19T05:33:20.727Z,21.26
2017-06-19T05:35:48.243Z,21.29
2017-06-19T05:38:15.790Z,21.37
2017-06-19T05:40:43.326Z,21.36
2017-06-19T05:43:10.891Z,21.32
2017-06-19T05:45:38.447Z,21.36
2017-06-19T05:48:05.947Z,21.45
2017-06-19T05:50:33.526Z,21.50
2017-06-19T05:53:01.039Z,21.54
2017-06-19T05:55:28.571Z,21.59
2017-06-19T05:57:56.090Z,21.62
2017-06-19T06:00:23.649Z,21.66
2017-06-19T06:02:51.159Z,21.70
2017-06-19T06:05:18.705Z,21.75
2017-06-19T06:07:46.210Z,21.79
2017-06-19T06:10:13.790Z,21.83
2017-06-19T06:12:41.354Z,21.90
2017-06-19T06:15:08.855Z,21.91
2017-06-19T06:17:36.368Z,21.94
2017-06-19T06:20:03.919Z,22.00
2017-06-19T06:22:31.439Z,22.02
2017-06-19T06:24:59.002Z,22.06
2017-06-19T06:27:26.595Z,22.13
2017-06-19T06:29:54.106Z,22.25
2017-06-19T06:32:21.670Z,22.25
2017-06-19T06:34:49.180Z,22.30
2017-06-19T06:37:16.759Z,22.30
2017-06-19T06:39:44.304Z,22.34
2017-06-19T06:42:11.807Z,22.38
2017-06-19T06:44:39.378Z,22.45
2017-06-19T06:47:06.888Z,22.50
2017-06-19T06:49:34.427Z,22.53
2017-06-19T06:52:01.941Z,22.58
2017-06-19T06:54:29.495Z,22.65
2017-06-19T06:56:57.006Z,22.71
2017-06-19T06:59:24.536Z,22.75
2017-06-19T07:01:52.099Z,22.78
2017-06-19T07:04:19.607Z,22.86
2017-06-19T07:06:47.186Z,22.95
2017-06-19T07:09:14.771Z,23.01
2017-06-19T07:11:42.308Z,23.04
2017-06-19T07:14:09.859Z,23.15
2017-06-19T07:16:37.375Z,23.25
2017-06-19T07:19:04.942Z,23.28
2017-06-19T07:21:32.448Z,23.31
2017-06-19T07:24:00.083Z,23.35
2017-06-19T07:26:27.655Z,23.42
2017-06-19T07:28:55.175Z,23.49
2017-06-19T07:31:22.810Z,23.55
2017-06-19T07:33:50.343Z,23.56
2017-06-19T07:36:17.938Z,23.69
2017-06-19T07:38:45.462Z,23.71
2017-06-19T07:41:13.193Z,23.75
2017-06-19T07:43:40.702Z,23.79
2017-06-19T07:46:08.227Z,23.83
2017-06-19T07:48:35.771Z,23.88
2017-06-19T07:51:04.175Z,23.92
2017-06-19T07:53:31.865Z,23.99
2017-06-19T07:55:59.367Z,24.04
2017-06-19T07:58:26.879Z,24.06
2017-06-19T08:00:54.434Z,24.12
2017-06-19T08:03:21.955Z,24.20
2017-06-19T08:05:49.507Z,24.26
2017-06-19T08:08:17.007Z,24.31
2017-06-19T08:10:44.575Z,24.43
2017-06-19T08:13:12.091Z,24.45
2017-06-19T08:15:39.606Z,24.52
2017-06-19T08:18:07.191Z,24.63
2017-06-19T08:20:34.699Z,24.63
2017-06-19T08:23:02.243Z,24.68
2017-06-19T08:25:29.755Z,24.76
2017-06-19T08:27:57.263Z,24.76
2017-06-19T08:30:24.836Z,24.83
2017-06-19T08:32:52.392Z,24.95
2017-06-19T08:35:19.973Z,25.01
2017-06-19T08:37:47.492Z,25.07
2017-06-19T08:40:15.034Z,25.16
2017-06-19T08:42:42.538Z,25.26
2017-06-19T08:45:10.098Z,25.38
2017-06-19T08:47:37.715Z,25.45
2017-06-19T08:50:05.230Z,25.45
2017-06-19T08:52:32.770Z,25.45
2017-06-19T08:55:00.283Z,25.59
2017-06-19T08:57:27.847Z,25.61
2017-06-19T08:59:55.407Z,25.65
2017-06-19T09:02:22.955Z,25.69
2017-06-19T09:04:50.466Z,25.66
2017-06-19T09:07:17.971Z,25.71
2017-06-19T09:09:45.504Z,25.74
2017-06-19T09:12:13.057Z,25.77
2017-06-19T09:14:40.600Z,25.86
2017-06-19T09:17:08.107Z,25.82
2017-06-19T09:19:35.735Z,25.86
2017-06-19T09:22:03.356Z,25.98
2017-06-19T09:24:30.952Z,26.00
2017-06-19T09:26:58.519Z,26.11
2017-06-19T09:29:26.044Z,26.19
2017-06-19T09:31:53.571Z,26.15
2017-06-19T09:34:21.127Z,26.27
2017-06-19T09:36:48.685Z,26.28
2017-06-19T09:39:16.399Z,26.36
2017-06-19T09:41:43.987Z,26.42
2017-06-19T09:44:11.529Z,26.50
2017-06-19T09:46:39.096Z,26.58
2017-06-19T09:49:06.663Z,26.67
2017-06-19T09:51:34.223Z,26.75
2017-06-19T09:54:01.750Z,26.77
2017-06-19T09:56:29.294Z,26.87
2017-06-19T09:58:56.799Z,26.97
2017-06-19T10:01:24.422Z,27.09
2017-06-19T10:03:51.928Z,27.04
2017-06-19T10:06:19.487Z,27.03
2017-06-19T10:08:46.995Z,27.28
2017-06-19T10:11:14.554Z,27.41
2017-06-19T10:13:42.054Z,27.39
2017-06-19T10:16:09.579Z,27.42
2017-06-19T10:18:37.123Z,27.59
2017-06-19T10:21:04.639Z,27.70
2017-06-19T10:23:32.183Z,27.76
2017-06-19T10:25:59.695Z,27.81
2017-06-19T10:28:27.262Z,27.86
2017-06-19T10:30:54.810Z,27.87
2017-06-19T10:33:22.368Z,28.17
2017-06-19T10:35:49.915Z,28.19
2017-06-19T10:38:17.437Z,28.10
2017-06-19T10:40:44.982Z,28.14
2017-06-19T10:43:12.496Z,28.32
2017-06-19T10:45:40.035Z,28.42
2017-06-19T10:48:07.561Z,28.50
2017-06-19T10:50:35.099Z,28.59
2017-06-19T10:53:02.611Z,28.67
2017-06-19T10:55:30.162Z,28.75
2017-06-19T10:57:57.667Z,28.82
2017-06-19T11:00:25.235Z,28.91
2017-06-19T11:02:52.742Z,28.94
2017-06-19T11:05:20.268Z,28.97
2017-06-19T11:07:47.848Z,29.06
2017-06-19T11:10:15.352Z,29.27
2017-06-19T11:12:42.936Z,29.15
2017-06-19T11:15:10.449Z,29.20
2017-06-19T11:17:38.008Z,29.32
2017-06-19T11:20:05.531Z,29.45
2017-06-19T11:22:33.067Z,29.48
2017-06-19T11:25:00.584Z,29.54
2017-06-19T11:27:28.140Z,29.56
2017-06-19T11:29:55.719Z,29.64
2017-06-19T11:32:23.227Z,29.65
2017-06-19T11:34:50.765Z,29.75
2017-06-19T11:37:18.308Z,29.83
2017-06-19T11:39:45.862Z,29.83
2017-06-19T11:42:13.380Z,29.87
2017-06-19T11:44:40.921Z,29.99
2017-06-19T11:47:08.432Z,30.08
2017-06-19T11:49:35.967Z,30.15
2017-06-19T11:52:03.499Z,30.26
2017-06-19T11:54:31.055Z,30.32
2017-06-19T11:56:58.580Z,30.33
2017-06-19T11:59:26.106Z,30.51
2017-06-19T12:01:53.644Z,30.61
2017-06-19T12:04:21.158Z,30.65
2017-06-19T12:06:48.702Z,30.68
2017-06-19T12:09:16.281Z,30.71
2017-06-19T12:11:43.887Z,30.67
2017-06-19T12:14:11.409Z,30.75
2017-06-19T12:16:38.963Z,30.63
2017-06-19T12:19:06.520Z,30.79
2017-06-19T12:21:34.071Z,30.90
2017-06-19T12:24:01.586Z,30.92
2017-06-19T12:26:29.098Z,30.95
2017-06-19T12:28:56.627Z,30.99
2017-06-19T12:31:24.153Z,31.16
2017-06-19T12:33:51.683Z,31.15
2017-06-19T12:36:19.194Z,31.16
2017-06-19T12:38:46.724Z,30.98
2017-06-19T12:41:14.239Z,30.97
2017-06-19T12:43:41.772Z,31.10
2017-06-19T12:46:09.307Z,31.20
2017-06-19T12:48:36.872Z,31.30
2017-06-19T12:51:04.391Z,31.44
2017-06-19T12:53:31.935Z,31.62
2017-06-19T12:55:59.454Z,31.79
2017-06-19T12:58:27.015Z,31.86
2017-06-19T13:00:54.550Z,31.88
2017-06-19T13:03:22.139Z,31.79
2017-06-19T13:05:49.669Z,31.76
2017-06-19T13:08:17.214Z,31.81
2017-06-19T13:10:44.718Z,32.04
2017-06-19T13:13:12.272Z,32.21
2017-06-19T13:15:39.795Z,32.24
2017-06-19T13:18:07.303Z,32.13
2017-06-19T13:20:34.895Z,32.13
2017-06-19T13:23:02.401Z,32.44
2017-06-19T13:25:29.950Z,32.49
2017-06-19T13:27:57.467Z,32.72
2017-06-19T13:30:25.028Z,32.99
2017-06-19T13:32:52.539Z,32.86
2017-06-19T13:35:20.090Z,32.60
2017-06-19T13:37:47.606Z,32.96
2017-06-19T13:40:15.174Z,33.03
2017-06-19T13:42:42.739Z,33.10
2017-06-19T13:45:10.251Z,33.40
2017-06-19T13:47:37.827Z,33.62
2017-06-19T13:50:05.327Z,33.78
2017-06-19T13:52:32.944Z,32.67
2017-06-19T13:55:00.510Z,33.13
2017-06-19T13:57:28.078Z,33.47
2017-06-19T13:59:55.676Z,33.79
2017-06-19T14:02:23.267Z,34.08
2017-06-19T14:04:50.879Z,34.31
2017-06-19T14:07:18.435Z,34.54
2017-06-19T14:09:45.947Z,34.77
2017-06-19T14:12:13.483Z,35.16
2017-06-19T14:14:40.995Z,35.31
2017-06-19T14:17:08.552Z,35.32
2017-06-19T14:19:36.064Z,35.35
2017-06-19T14:22:03.602Z,35.66
2017-06-19T14:24:31.123Z,35.82
2017-06-19T14:26:58.697Z,36.05
2017-06-19T14:29:26.201Z,35.99
2017-06-19T14:31:53.728Z,36.11
2017-06-19T14:34:21.279Z,36.22
2017-06-19T14:36:48.832Z,35.64
2017-06-19T14:39:16.379Z,35.69
2017-06-19T14:41:43.903Z,36.00
2017-06-19T14:44:11.456Z,36.28
2017-06-19T14:46:38.978Z,36.19
2017-06-19T14:49:06.605Z,35.83
2017-06-19T14:51:34.115Z,35.87
2017-06-19T14:54:01.667Z,35.54
2017-06-19T14:56:29.203Z,35.33
2017-06-19T14:58:56.759Z,35.70
2017-06-19T15:01:24.268Z,35.96
2017-06-19T15:03:51.807Z,36.21
2017-06-19T15:06:19.330Z,35.56
2017-06-19T15:08:46.906Z,35.44
2017-06-19T15:11:14.427Z,35.64
2017-06-19T15:13:41.963Z,35.92
2017-06-19T15:16:09.487Z,36.08
2017-06-19T15:18:37.026Z,36.31
2017-06-19T15:21:10.124Z,35.72
2017-06-19T15:23:54.162Z,36.03
2017-06-19T15:26:21.687Z,35.84
2017-06-19T15:28:49.267Z,35.89
2017-06-19T15:31:16.770Z,35.80
2017-06-19T15:33:44.283Z,35.53
2017-06-19T15:36:11.836Z,35.83
2017-06-19T15:38:39.323Z,35.88
2017-06-19T15:41:06.883Z,36.24
2017-06-19T15:43:34.406Z,36.27
2017-06-19T15:46:01.963Z,36.37
2017-06-19T15:48:29.484Z,36.33
2017-06-19T15:50:57.069Z,36.37
2017-06-19T15:53:24.617Z,36.14
2017-06-19T15:55:52.119Z,36.41
2017-06-19T15:58:19.662Z,36.50
2017-06-19T16:00:47.154Z,36.58
2017-06-19T16:03:14.739Z,36.66
2017-06-19T16:05:42.463Z,36.55
2017-06-19T16:08:10.003Z,36.92
2017-06-19T16:10:38.499Z,37.07
2017-06-19T16:13:06.173Z,36.76
2017-06-19T16:15:33.733Z,37.01
2017-06-19T16:18:01.406Z,36.80
2017-06-19T16:20:29.047Z,36.65
2017-06-19T16:22:56.612Z,36.59
2017-06-19T16:25:24.210Z,36.54
2017-06-19T16:27:51.818Z,36.50
2017-06-19T16:30:19.367Z,36.38
2017-06-19T16:32:46.909Z,36.31
2017-06-19T16:35:14.440Z,36.32
2017-06-19T16:37:41.960Z,36.55
2017-06-19T16:40:09.614Z,36.52
2017-06-19T16:42:37.170Z,36.31
2017-06-19T16:45:04.698Z,36.25
2017-06-19T16:47:32.246Z,35.95
2017-06-19T16:49:59.796Z,35.95
2017-06-19T16:52:27.416Z,35.89
2017-06-19T16:54:55.039Z,36.00
2017-06-19T16:57:22.730Z,35.95
2017-06-19T16:59:50.258Z,35.74
2017-06-19T17:02:17.861Z,35.87
2017-06-19T17:04:45.511Z,35.67
2017-06-19T17:07:13.123Z,35.63
2017-06-19T17:09:40.731Z,35.81
2017-06-19T17:12:08.265Z,35.77
2017-06-19T17:14:35.811Z,36.30
2017-06-19T17:17:03.327Z,36.34
2017-06-19T17:19:30.894Z,36.19
2017-06-19T17:21:58.430Z,36.01
2017-06-19T17:24:26.035Z,35.92
2017-06-19T17:26:53.571Z,35.93
2017-06-19T17:29:21.205Z,35.75
2017-06-19T17:31:48.716Z,35.87
2017-06-19T17:34:16.259Z,35.81
2017-06-19T17:36:43.801Z,35.82
2017-06-19T17:39:11.306Z,35.89
2017-06-19T17:41:38.970Z,35.80
2017-06-19T17:44:06.494Z,36.08
2017-06-19T17:46:34.030Z,35.93
2017-06-19T17:49:01.600Z,35.93
2017-06-19T17:51:29.111Z,36.10
2017-06-19T17:53:56.672Z,35.87
2017-06-19T17:56:24.190Z,35.89
2017-06-19T17:58:51.782Z,36.09
2017-06-19T18:01:19.283Z,35.95
2017-06-19T18:03:46.948Z,35.89
2017-06-19T18:06:14.468Z,36.02
2017-06-19T18:08:41.992Z,35.80
2017-06-19T18:11:09.531Z,35.84
2017-06-19T18:13:37.057Z,35.83
2017-06-19T18:16:04.624Z,35.72
2017-06-19T18:18:32.153Z,35.65
2017-06-19T18:20:59.731Z,35.69
2017-06-19T18:23:27.243Z,35.56
2017-06-19T18:25:55.115Z,35.69
2017-06-19T18:28:22.624Z,35.45
2017-06-19T18:30:50.136Z,35.17
2017-06-19T18:33:17.699Z,34.94
2017-06-19T18:35:45.275Z,34.78
2017-06-19T18:38:12.845Z,34.64
2017-06-19T18:40:40.372Z,34.36
2017-06-19T18:43:08.091Z,34.08
2017-06-19T18:45:35.610Z,33.78
2017-06-19T18:48:03.187Z,33.62
2017-06-19T18:50:30.739Z,33.54
2017-06-19T18:52:58.259Z,33.40
2017-06-19T18:55:25.841Z,33.24
2017-06-19T18:57:53.371Z,33.16
2017-06-19T19:00:21.147Z,32.79
2017-06-19T19:02:48.668Z,32.83
2017-06-19T19:05:16.220Z,32.65
2017-06-19T19:07:43.783Z,32.49
2017-06-19T19:10:11.331Z,32.14
2017-06-19T19:12:39.149Z,31.70
2017-06-19T19:15:06.664Z,31.44
2017-06-19T19:17:34.186Z,31.34
2017-06-19T19:20:01.771Z,31.08
2017-06-19T19:22:29.326Z,30.86
2017-06-19T19:24:57.027Z,31.13
2017-06-19T19:27:24.573Z,30.92
2017-06-19T19:29:52.576Z,30.68
2017-06-19T19:32:20.115Z,30.97
2017-06-19T19:34:47.637Z,31.05
2017-06-19T19:37:15.232Z,31.01
2017-06-19T19:39:42.740Z,30.97
2017-06-19T19:42:10.329Z,31.09
2017-06-19T19:44:37.859Z,30.79
2017-06-19T19:47:05.564Z,30.85
2017-06-19T19:49:33.099Z,30.66
2017-06-19T19:52:00.628Z,30.84
2017-06-19T19:54:28.190Z,30.77
2017-06-19T19:56:55.755Z,30.72
2017-06-19T19:59:23.306Z,30.62
2017-06-19T20:01:50.820Z,30.28
2017-06-19T20:04:18.379Z,30.34
2017-06-19T20:06:45.987Z,30.20
2017-06-19T20:09:13.544Z,30.28
2017-06-19T20:11:41.064Z,30.10
2017-06-19T20:14:08.619Z,29.78
2017-06-19T20:16:36.221Z,29.43
2017-06-19T20:19:03.864Z,29.26
2017-06-19T20:21:31.380Z,29.25
2017-06-19T20:23:58.974Z,29.33
2017-06-19T20:26:26.556Z,29.45
2017-06-19T20:28:54.174Z,29.44
2017-06-19T20:31:21.687Z,29.49
2017-06-19T20:33:49.779Z,29.60
2017-06-19T20:36:17.299Z,29.39
2017-06-19T20:38:44.840Z,29.27
2017-06-19T20:41:12.364Z,29.07
2017-06-19T20:43:39.907Z,28.67
2017-06-19T20:46:07.408Z,28.53
2017-06-19T20:48:34.991Z,28.32
2017-06-19T20:51:02.532Z,28.28
2017-06-19T20:53:30.071Z,28.07
2017-06-19T20:55:57.651Z,27.98
2017-06-19T20:58:25.173Z,27.85
2017-06-19T21:00:52.811Z,27.71
2017-06-19T21:03:20.352Z,27.79
2017-06-19T21:05:47.995Z,28.05
2017-06-19T21:08:15.516Z,28.07
2017-06-19T21:10:43.320Z,28.31
2017-06-19T21:13:10.834Z,28.04
2017-06-19T21:15:38.378Z,28.05
2017-06-19T21:18:05.991Z,27.86
2017-06-19T21:20:33.547Z,27.49
2017-06-19T21:23:01.119Z,27.33
2017-06-19T21:25:28.747Z,27.54
2017-06-19T21:27:56.311Z,27.22
2017-06-19T21:30:23.867Z,27.13
2017-06-19T21:32:51.386Z,26.91
2017-06-19T21:35:18.935Z,26.78
2017-06-19T21:37:46.487Z,26.63
2017-06-19T21:40:14.055Z,26.60
2017-06-19T21:42:41.652Z,26.46
2017-06-19T21:45:09.399Z,26.52
2017-06-19T21:47:36.996Z,26.25
2017-06-19T21:50:04.555Z,26.20
2017-06-19T21:52:32.116Z,26.13
2017-06-19T21:54:59.651Z,26.15
2017-06-19T21:57:27.316Z,26.08
2017-06-19T21:59:54.915Z,26.04
2017-06-19T22:02:22.515Z,26.09
2017-06-19T22:04:50.043Z,26.02
2017-06-19T22:07:17.711Z,25.94
2017-06-19T22:09:45.234Z,25.94
2017-06-19T22:12:12.772Z,25.88
2017-06-19T22:14:40.352Z,25.80
2017-06-19T22:17:07.863Z,25.71
2017-06-19T22:19:35.404Z,25.68
2017-06-19T22:22:08.483Z,25.61
2017-06-19T22:24:36.047Z,25.59
2017-06-19T22:27:03.606Z,25.49
2017-06-19T22:29:31.207Z,25.39
2017-06-19T22:31:58.759Z,25.28
2017-06-19T22:34:26.274Z,25.28
2017-06-19T22:36:53.827Z,25.23
2017-06-19T22:39:21.335Z,25.22
2017-06-19T22:41:48.912Z,25.11
2017-06-19T22:44:16.423Z,25.08
2017-06-19T22:46:44.277Z,25.03
2017-06-19T22:49:11.797Z,24.95
2017-06-19T22:51:39.356Z,24.97
2017-06-19T22:54:06.911Z,24.88
2017-06-19T22:56:34.416Z,24.91
2017-06-19T22:59:01.984Z,24.90
2017-06-19T23:01:29.584Z,24.85
2017-06-19T23:03:57.176Z,24.87
2017-06-19T23:06:24.711Z,24.87
2017-06-19T23:08:52.264Z,24.71
2017-06-19T23:11:19.795Z,24.71
2017-06-19T23:13:47.451Z,24.63
2017-06-19T23:16:14.968Z,24.85
2017-06-19T23:18:42.477Z,24.97
2017-06-19T23:21:10.032Z,24.71
2017-06-19T23:23:37.559Z,24.58
2017-06-19T23:26:05.131Z,24.42
2017-06-19T23:28:32.630Z,24.53
2017-06-19T23:31:00.509Z,24.39
2017-06-19T23:33:28.078Z,24.23
2017-06-19T23:35:55.591Z,24.15
2017-06-19T23:38:23.151Z,24.14
2017-06-19T23:40:50.672Z,24.14
2017-06-19T23:43:18.239Z,24.06
2017-06-19T23:45:45.812Z,23.95
2017-06-19T23:48:13.463Z,23.83
2017-06-19T23:50:40.975Z,23.80
2017-06-19T23:53:08.495Z,23.80
2017-06-19T23:55:36.056Z,23.71
2017-06-19T23:58:03.578Z,23.56
